createdAt,value
2023-03-22T00:56:25.733Z,595.00
2023-03-22T01:00:26.743Z,599.00
2023-03-22T01:04:26.817Z,594.00
2023-03-22T01:08:26.968Z,596.00
2023-03-22T01:12:27.172Z,591.00
2023-03-22T01:16:27.343Z,591.00
2023-03-22T01:20:27.413Z,590.00
2023-03-22T01:24:27.576Z,586.00
2023-03-22T01:28:27.789Z,587.00
2023-03-22T01:32:27.916Z,587.00
2023-03-22T01:36:28.084Z,587.00
2023-03-22T01:40:28.262Z,585.00
2023-03-22T01:44:28.452Z,587.00
2023-03-22T01:48:28.630Z,587.00
2023-03-22T01:52:28.785Z,587.00
2023-03-22T01:56:29.011Z,581.00
2023-03-22T03:48:34.044Z,545.00
2023-03-22T03:56:34.052Z,541.00
2023-03-22T04:00:34.054Z,544.00
2023-03-22T04:04:34.246Z,537.00
2023-03-22T04:08:34.400Z,536.00
2023-03-22T04:12:34.535Z,535.00
2023-03-22T04:16:35.197Z,536.00
2023-03-22T04:20:35.065Z,536.00
2023-03-22T04:24:35.586Z,537.00
2023-03-22T06:08:39.629Z,526.00
2023-03-22T06:12:39.334Z,522.00
2023-03-22T06:16:39.708Z,529.00
2023-03-22T06:20:39.804Z,529.00
2023-03-22T06:24:40.131Z,579.00
2023-03-22T06:28:40.126Z,602.00
2023-03-22T06:32:39.885Z,632.00
2023-03-22T06:36:40.119Z,704.00
2023-03-22T06:40:40.487Z,735.00
2023-03-22T06:44:40.124Z,794.00
2023-03-22T06:48:39.903Z,827.00
2023-03-22T06:52:40.122Z,865.00
2023-03-22T06:56:40.182Z,937.00
2023-03-22T07:04:40.697Z,963.00
2023-03-22T07:08:41.130Z,953.00
2023-03-22T07:12:41.141Z,949.00
2023-03-22T07:16:41.136Z,943.00
2023-03-22T07:24:53.876Z,938.00
2023-03-22T07:28:41.140Z,930.00
2023-03-22T07:32:41.138Z,922.00
2023-03-22T07:40:40.880Z,924.00
2023-03-22T07:44:40.657Z,921.00
2023-03-22T07:48:41.190Z,920.00
2023-03-22T11:36:42.277Z,779.00
2023-03-22T11:44:42.126Z,808.00
2023-03-22T11:48:42.455Z,806.00
2023-03-22T11:52:42.796Z,798.00
2023-03-22T12:16:42.594Z,807.00
2023-03-22T13:32:43.403Z,1234.00
2023-03-22T21:00:49.874Z,704.00
2023-03-22T21:04:50.831Z,699.00
2023-03-22T21:08:50.796Z,694.00
2023-03-22T21:12:50.784Z,692.00
2023-03-22T21:16:50.720Z,694.00
2023-03-22T21:20:50.684Z,690.00
2023-03-22T21:24:50.663Z,689.00
2023-03-22T21:28:50.752Z,686.00
2023-03-22T21:32:50.913Z,676.00
2023-03-22T21:36:51.158Z,674.00
2023-03-22T21:40:51.338Z,674.00
2023-03-22T21:44:51.570Z,670.00
2023-03-22T21:48:51.732Z,668.00
2023-03-22T21:52:51.925Z,670.00
